createdAt,value
2023-09-12T00:13:18.879Z,3.21
2023-09-12T00:29:01.871Z,3.21
2023-09-12T00:44:44.148Z,3.21
2023-09-12T01:00:26.995Z,3.21
2023-09-12T01:16:09.232Z,3.21
2023-09-12T01:31:51.259Z,3.21
2023-09-12T01:47:33.509Z,3.212
2023-09-12T02:03:15.884Z,3.212
2023-09-12T02:18:58.197Z,3.212
2023-09-12T02:34:40.370Z,3.21
2023-09-12T02:50:23.066Z,3.212
2023-09-12T03:06:05.926Z,3.21
2023-09-12T03:21:48.315Z,3.212
2023-09-12T03:37:31.217Z,3.212
2023-09-12T03:53:13.311Z,3.212
2023-09-12T04:08:56.014Z,3.21
2023-09-12T04:24:38.742Z,3.212
2023-09-12T04:40:20.903Z,3.212
2023-09-12T04:41:08.198Z,3.209
2023-09-12T04:56:50.583Z,3.21
2023-09-12T05:12:33.337Z,3.212
2023-09-12T05:28:15.543Z,3.213
2023-09-12T05:43:58.429Z,3.213
2023-09-12T05:59:40.732Z,3.214
2023-09-12T06:15:23.094Z,3.214
2023-09-12T06:31:05.644Z,3.216
2023-09-12T06:46:48.262Z,3.224
2023-09-12T07:02:31.144Z,3.227
2023-09-12T07:33:55.742Z,3.231
2023-09-12T07:49:38.424Z,3.235
2023-09-12T08:05:20.647Z,3.239
2023-09-12T08:21:02.945Z,3.516
2023-09-12T08:36:45.263Z,3.409
2023-09-12T08:52:27.967Z,3.384
2023-09-12T09:08:10.873Z,3.365
2023-09-12T09:23:53.716Z,3.353
2023-09-12T09:39:36.297Z,3.339
2023-09-12T09:55:19.089Z,3.328
2023-09-12T10:11:01.231Z,3.306
2023-09-12T10:26:44.189Z,3.297
2023-09-12T10:42:26.764Z,3.289
2023-09-12T10:58:09.119Z,3.282
2023-09-12T11:13:51.423Z,3.276
2023-09-12T11:29:33.763Z,3.27
2023-09-12T11:45:16.098Z,3.265
2023-09-12T12:00:57.991Z,3.26
2023-09-12T12:16:40.016Z,3.256
2023-09-12T12:32:22.562Z,3.253
2023-09-12T12:48:05.649Z,3.247
2023-09-12T13:03:47.991Z,3.246
2023-09-12T13:19:30.634Z,3.242
2023-09-12T13:35:12.630Z,3.462
2023-09-12T13:50:55.117Z,3.438
2023-09-12T14:06:37.909Z,3.418
2023-09-12T14:22:20.187Z,3.401
2023-09-12T14:38:02.867Z,3.386
2023-09-12T14:53:45.409Z,3.372
2023-09-12T15:09:27.821Z,3.358
2023-09-12T15:25:10.562Z,3.344
2023-09-12T15:40:52.352Z,3.333
2023-09-12T15:56:35.166Z,3.31
2023-09-12T16:12:17.982Z,3.3
2023-09-12T16:28:00.617Z,3.292
2023-09-12T16:43:43.228Z,3.283
2023-09-12T16:59:25.910Z,3.276
2023-09-12T17:15:08.695Z,3.271
2023-09-12T17:30:51.630Z,3.265
2023-09-12T17:46:33.864Z,3.26
2023-09-12T18:02:15.821Z,3.256
2023-09-12T18:17:58.312Z,3.25
2023-09-12T18:33:40.402Z,3.246
2023-09-12T18:49:22.601Z,3.242
2023-09-12T19:05:05.272Z,3.239
2023-09-12T19:20:47.388Z,3.236
2023-09-12T19:36:30.096Z,3.234
2023-09-12T19:52:12.350Z,3.232
2023-09-12T20:07:54.329Z,3.229
2023-09-12T20:23:36.718Z,3.228
2023-09-12T20:39:19.393Z,3.225
2023-09-12T20:55:02.312Z,3.225
2023-09-12T21:10:45.010Z,3.224
2023-09-12T21:26:27.859Z,3.217
2023-09-12T21:42:10.759Z,3.216
2023-09-12T21:57:53.168Z,3.214
2023-09-12T22:13:35.685Z,3.213
2023-09-12T22:29:17.797Z,3.213
2023-09-12T22:45:00.545Z,3.212
2023-09-12T23:00:43.069Z,3.212
2023-09-12T23:16:25.260Z,3.212
2023-09-12T23:32:07.568Z,3.213
2023-09-12T23:47:49.648Z,3.21
